sensor_id;sensor_type;location;lat;lon;timestamp;P1;durP1;ratioP1;P2;durP2;ratioP2
26478;SDS011;14163;-26.142;27.992;2022-09-09T00:00:15;24.87;;;22.43;;
26478;SDS011;14163;-26.142;27.992;2022-09-09T00:02:49;23.77;;;21.30;;
26478;SDS011;14163;-26.142;27.992;2022-09-09T00:05:29;30.23;;;21.90;;
26478;SDS011;14163;-26.142;27.992;2022-09-09T00:08:07;21.93;;;19.77;;
26478;SDS011;14163;-26.142;27.992;2022-09-09T00:10:46;21.60;;;19.03;;
26478;SDS011;14163;-26.142;27.992;2022-09-09T00:13:22;22.17;;;20.17;;
26478;SDS011;14163;-26.142;27.992;2022-09-09T00:15:57;22.53;;;20.20;;
26478;SDS011;14163;-26.142;27.992;2022-09-09T00:18:45;21.17;;;19.23;;
26478;SDS011;14163;-26.142;27.992;2022-09-09T00:21:19;20.43;;;18.33;;
26478;SDS011;14163;-26.142;27.992;2022-09-09T00:23:54;20.57;;;18.37;;
26478;SDS011;14163;-26.142;27.992;2022-09-09T00:26:26;20.70;;;18.17;;
26478;SDS011;14163;-26.142;27.992;2022-09-09T00:29:03;20.97;;;17.77;;
26478;SDS011;14163;-26.142;27.992;2022-09-09T00:31:42;20.07;;;18.07;;
26478;SDS011;14163;-26.142;27.992;2022-09-09T00:34:15;19.40;;;17.60;;
26478;SDS011;14163;-26.142;27.992;2022-09-09T00:36:47;20.80;;;18.60;;
26478;SDS011;14163;-26.142;27.992;2022-09-09T00:39:23;18.57;;;16.77;;
26478;SDS011;14163;-26.142;27.992;2022-09-09T00:42:02;18.83;;;16.80;;
26478;SDS011;14163;-26.142;27.992;2022-09-09T00:44:44;19.23;;;17.43;;
26478;SDS011;14163;-26.142;27.992;2022-09-09T00:47:28;17.67;;;15.90;;
26478;SDS011;14163;-26.142;27.992;2022-09-09T00:50:20;19.73;;;16.77;;
26478;SDS011;14163;-26.142;27.992;2022-09-09T00:53:10;19.23;;;16.00;;
26478;SDS011;14163;-26.142;27.992;2022-09-09T00:55:48;20.73;;;16.77;;
26478;SDS011;14163;-26.142;27.992;2022-09-09T00:58:21;19.30;;;17.50;;
26478;SDS011;14163;-26.142;27.992;2022-09-09T01:00:54;19.13;;;17.20;;
26478;SDS011;14163;-26.142;27.992;2022-09-09T01:03:34;17.60;;;16.07;;
26478;SDS011;14163;-26.142;27.992;2022-09-09T01:06:19;18.73;;;16.93;;
26478;SDS011;14163;-26.142;27.992;2022-09-09T01:08:56;17.70;;;16.00;;
26478;SDS011;14163;-26.142;27.992;2022-09-09T01:11:49;18.27;;;16.47;;
26478;SDS011;14163;-26.142;27.992;2022-09-09T01:14:27;18.00;;;16.20;;
26478;SDS011;14163;-26.142;27.992;2022-09-09T01:17:09;20.20;;;16.13;;
26478;SDS011;14163;-26.142;27.992;2022-09-09T01:19:47;18.47;;;16.70;;
26478;SDS011;14163;-26.142;27.992;2022-09-09T01:22:29;19.00;;;17.23;;
26478;SDS011;14163;-26.142;27.992;2022-09-09T01:25:11;19.23;;;16.60;;
26478;SDS011;14163;-26.142;27.992;2022-09-09T01:27:53;18.20;;;16.50;;
26478;SDS011;14163;-26.142;27.992;2022-09-09T01:30:26;17.13;;;15.47;;
26478;SDS011;14163;-26.142;27.992;2022-09-09T01:32:56;16.63;;;14.93;;
26478;SDS011;14163;-26.142;27.992;2022-09-09T01:35:31;16.40;;;14.80;;
26478;SDS011;14163;-26.142;27.992;2022-09-09T01:38:06;17.13;;;15.50;;
26478;SDS011;14163;-26.142;27.992;2022-09-09T01:40:39;16.17;;;14.70;;
26478;SDS011;14163;-26.142;27.992;2022-09-09T01:43:10;16.70;;;15.20;;
26478;SDS011;14163;-26.142;27.992;2022-09-09T01:45:39;17.47;;;15.30;;
26478;SDS011;14163;-26.142;27.992;2022-09-09T01:48:11;17.23;;;15.77;;
26478;SDS011;14163;-26.142;27.992;2022-09-09T01:50:41;16.03;;;14.53;;
26478;SDS011;14163;-26.142;27.992;2022-09-09T01:53:11;15.80;;;14.40;;
26478;SDS011;14163;-26.142;27.992;2022-09-09T01:55:42;15.93;;;14.53;;
26478;SDS011;14163;-26.142;27.992;2022-09-09T01:58:28;18.30;;;15.40;;
26478;SDS011;14163;-26.142;27.992;2022-09-09T02:01:06;17.00;;;15.40;;
26478;SDS011;14163;-26.142;27.992;2022-09-09T02:03:40;16.53;;;14.77;;
26478;SDS011;14163;-26.142;27.992;2022-09-09T02:06:20;16.57;;;14.87;;
26478;SDS011;14163;-26.142;27.992;2022-09-09T02:08:57;18.60;;;15.27;;
26478;SDS011;14163;-26.142;27.992;2022-09-09T02:11:28;17.60;;;15.80;;
26478;SDS011;14163;-26.142;27.992;2022-09-09T02:14:02;16.87;;;15.17;;
26478;SDS011;14163;-26.142;27.992;2022-09-09T02:16:37;17.83;;;16.13;;
26478;SDS011;14163;-26.142;27.992;2022-09-09T02:19:11;16.27;;;14.60;;
26478;SDS011;14163;-26.142;27.992;2022-09-09T02:21:43;16.40;;;13.43;;
26478;SDS011;14163;-26.142;27.992;2022-09-09T02:24:15;16.50;;;15.00;;
26478;SDS011;14163;-26.142;27.992;2022-09-09T02:26:44;16.83;;;15.20;;
26478;SDS011;14163;-26.142;27.992;2022-09-09T02:29:19;17.10;;;15.27;;
26478;SDS011;14163;-26.142;27.992;2022-09-09T02:31:51;17.80;;;15.97;;
26478;SDS011;14163;-26.142;27.992;2022-09-09T02:34:25;16.07;;;14.53;;
26478;SDS011;14163;-26.142;27.992;2022-09-09T02:36:57;15.93;;;14.10;;
26478;SDS011;14163;-26.142;27.992;2022-09-09T02:39:27;16.10;;;14.50;;
26478;SDS011;14163;-26.142;27.992;2022-09-09T02:41:57;15.17;;;13.87;;
26478;SDS011;14163;-26.142;27.992;2022-09-09T02:44:28;17.17;;;15.47;;
26478;SDS011;14163;-26.142;27.992;2022-09-09T02:47:02;17.40;;;15.80;;
26478;SDS011;14163;-26.142;27.992;2022-09-09T02:49:40;17.70;;;15.90;;
26478;SDS011;14163;-26.142;27.992;2022-09-09T02:52:20;17.40;;;15.90;;
26478;SDS011;14163;-26.142;27.992;2022-09-09T02:54:54;16.77;;;15.17;;
26478;SDS011;14163;-26.142;27.992;2022-09-09T02:57:31;16.47;;;14.93;;
26478;SDS011;14163;-26.142;27.992;2022-09-09T03:00:04;17.63;;;15.93;;
26478;SDS011;14163;-26.142;27.992;2022-09-09T03:02:36;17.67;;;15.90;;
26478;SDS011;14163;-26.142;27.992;2022-09-09T03:05:07;17.67;;;15.90;;
26478;SDS011;14163;-26.142;27.992;2022-09-09T03:07:38;17.60;;;15.80;;
26478;SDS011;14163;-26.142;27.992;2022-09-09T03:10:08;16.37;;;14.70;;
26478;SDS011;14163;-26.142;27.992;2022-09-09T03:12:37;17.50;;;15.67;;
26478;SDS011;14163;-26.142;27.992;2022-09-09T03:15:09;18.20;;;16.40;;
26478;SDS011;14163;-26.142;27.992;2022-09-09T03:17:39;17.80;;;16.20;;
26478;SDS011;14163;-26.142;27.992;2022-09-09T03:20:08;17.53;;;15.80;;
26478;SDS011;14163;-26.142;27.992;2022-09-09T03:22:38;16.93;;;15.33;;
26478;SDS011;14163;-26.142;27.992;2022-09-09T03:25:07;15.83;;;14.33;;
26478;SDS011;14163;-26.142;27.992;2022-09-09T03:27:37;17.30;;;15.77;;
26478;SDS011;14163;-26.142;27.992;2022-09-09T03:30:08;18.10;;;16.30;;
26478;SDS011;14163;-26.142;27.992;2022-09-09T03:32:39;17.20;;;15.77;;
26478;SDS011;14163;-26.142;27.992;2022-09-09T03:35:08;17.27;;;15.70;;
26478;SDS011;14163;-26.142;27.992;2022-09-09T03:37:37;17.57;;;15.83;;
26478;SDS011;14163;-26.142;27.992;2022-09-09T03:40:07;17.70;;;16.10;;
26478;SDS011;14163;-26.142;27.992;2022-09-09T03:42:37;18.70;;;16.70;;
26478;SDS011;14163;-26.142;27.992;2022-09-09T03:45:09;19.03;;;16.17;;
26478;SDS011;14163;-26.142;27.992;2022-09-09T03:47:38;18.73;;;15.93;;
26478;SDS011;14163;-26.142;27.992;2022-09-09T03:50:08;18.27;;;16.57;;
26478;SDS011;14163;-26.142;27.992;2022-09-09T03:52:39;18.40;;;16.30;;
26478;SDS011;14163;-26.142;27.992;2022-09-09T03:55:09;18.23;;;16.43;;
26478;SDS011;14163;-26.142;27.992;2022-09-09T03:57:38;18.30;;;16.70;;
26478;SDS011;14163;-26.142;27.992;2022-09-09T04:00:11;18.53;;;16.60;;
26478;SDS011;14163;-26.142;27.992;2022-09-09T04:02:41;19.00;;;16.60;;
26478;SDS011;14163;-26.142;27.992;2022-09-09T04:05:11;18.67;;;16.73;;
26478;SDS011;14163;-26.142;27.992;2022-09-09T04:07:41;17.43;;;15.83;;
26478;SDS011;14163;-26.142;27.992;2022-09-09T04:10:10;18.93;;;16.90;;
26478;SDS011;14163;-26.142;27.992;2022-09-09T04:12:41;18.27;;;16.37;;
26478;SDS011;14163;-26.142;27.992;2022-09-09T04:15:14;18.10;;;16.30;;
26478;SDS011;14163;-26.142;27.992;2022-09-09T04:17:44;18.10;;;16.20;;
26478;SDS011;14163;-26.142;27.992;2022-09-09T04:20:13;19.07;;;17.20;;
26478;SDS011;14163;-26.142;27.992;2022-09-09T04:22:43;20.87;;;16.70;;
26478;SDS011;14163;-26.142;27.992;2022-09-09T04:25:12;18.80;;;16.93;;
26478;SDS011;14163;-26.142;27.992;2022-09-09T04:27:42;18.97;;;16.70;;
26478;SDS011;14163;-26.142;27.992;2022-09-09T04:30:14;18.07;;;16.20;;
26478;SDS011;14163;-26.142;27.992;2022-09-09T04:32:44;18.70;;;16.90;;
26478;SDS011;14163;-26.142;27.992;2022-09-09T04:35:13;20.90;;;17.30;;
26478;SDS011;14163;-26.142;27.992;2022-09-09T04:37:42;18.43;;;16.63;;
26478;SDS011;14163;-26.142;27.992;2022-09-09T04:40:12;19.77;;;16.67;;
26478;SDS011;14163;-26.142;27.992;2022-09-09T04:42:41;18.07;;;15.90;;
26478;SDS011;14163;-26.142;27.992;2022-09-09T04:45:11;18.20;;;16.40;;
26478;SDS011;14163;-26.142;27.992;2022-09-09T04:47:41;19.07;;;16.97;;
26478;SDS011;14163;-26.142;27.992;2022-09-09T04:50:11;23.13;;;16.90;;
26478;SDS011;14163;-26.142;27.992;2022-09-09T04:52:40;19.37;;;17.10;;
26478;SDS011;14163;-26.142;27.992;2022-09-09T04:55:09;24.60;;;18.17;;
26478;SDS011;14163;-26.142;27.992;2022-09-09T04:57:40;19.30;;;17.40;;
26478;SDS011;14163;-26.142;27.992;2022-09-09T05:00:09;17.83;;;15.87;;
26478;SDS011;14163;-26.142;27.992;2022-09-09T05:02:41;20.77;;;18.70;;
26478;SDS011;14163;-26.142;27.992;2022-09-09T05:05:11;20.07;;;17.97;;
26478;SDS011;14163;-26.142;27.992;2022-09-09T05:07:40;19.77;;;17.97;;
26478;SDS011;14163;-26.142;27.992;2022-09-09T05:10:09;19.03;;;17.03;;
26478;SDS011;14163;-26.142;27.992;2022-09-09T05:12:39;20.03;;;18.13;;
26478;SDS011;14163;-26.142;27.992;2022-09-09T05:15:09;18.57;;;16.67;;
26478;SDS011;14163;-26.142;27.992;2022-09-09T05:17:38;22.80;;;18.00;;
26478;SDS011;14163;-26.142;27.992;2022-09-09T05:20:09;18.80;;;16.80;;
26478;SDS011;14163;-26.142;27.992;2022-09-09T05:22:38;20.13;;;17.93;;
26478;SDS011;14163;-26.142;27.992;2022-09-09T05:25:08;21.77;;;16.50;;
26478;SDS011;14163;-26.142;27.992;2022-09-09T05:27:37;19.20;;;17.40;;
26478;SDS011;14163;-26.142;27.992;2022-09-09T05:30:06;19.93;;;18.03;;
26478;SDS011;14163;-26.142;27.992;2022-09-09T05:32:36;19.73;;;17.67;;
26478;SDS011;14163;-26.142;27.992;2022-09-09T05:35:08;18.93;;;17.13;;
26478;SDS011;14163;-26.142;27.992;2022-09-09T05:37:37;18.33;;;16.13;;
26478;SDS011;14163;-26.142;27.992;2022-09-09T05:40:06;17.33;;;14.83;;
26478;SDS011;14163;-26.142;27.992;2022-09-09T05:42:36;22.40;;;15.73;;
26478;SDS011;14163;-26.142;27.992;2022-09-09T05:45:06;16.33;;;14.83;;
26478;SDS011;14163;-26.142;27.992;2022-09-09T05:47:36;16.90;;;15.23;;
26478;SDS011;14163;-26.142;27.992;2022-09-09T05:50:08;18.10;;;16.20;;
26478;SDS011;14163;-26.142;27.992;2022-09-09T05:52:37;16.83;;;14.97;;
26478;SDS011;14163;-26.142;27.992;2022-09-09T05:55:07;16.30;;;14.63;;
26478;SDS011;14163;-26.142;27.992;2022-09-09T05:57:36;16.87;;;15.13;;
26478;SDS011;14163;-26.142;27.992;2022-09-09T06:00:07;17.63;;;15.47;;
26478;SDS011;14163;-26.142;27.992;2022-09-09T06:02:37;15.97;;;14.27;;
26478;SDS011;14163;-26.142;27.992;2022-09-09T06:05:09;19.87;;;15.37;;
26478;SDS011;14163;-26.142;27.992;2022-09-09T06:07:38;17.23;;;15.50;;
26478;SDS011;14163;-26.142;27.992;2022-09-09T06:10:09;19.50;;;16.23;;
26478;SDS011;14163;-26.142;27.992;2022-09-09T06:12:39;16.77;;;14.80;;
26478;SDS011;14163;-26.142;27.992;2022-09-09T06:15:08;19.70;;;16.17;;
26478;SDS011;14163;-26.142;27.992;2022-09-09T06:17:38;16.57;;;15.00;;
26478;SDS011;14163;-26.142;27.992;2022-09-09T06:20:09;23.97;;;15.90;;
26478;SDS011;14163;-26.142;27.992;2022-09-09T06:22:39;17.77;;;16.00;;
26478;SDS011;14163;-26.142;27.992;2022-09-09T06:25:09;17.63;;;15.77;;
26478;SDS011;14163;-26.142;27.992;2022-09-09T06:27:38;16.90;;;15.10;;
26478;SDS011;14163;-26.142;27.992;2022-09-09T06:30:08;17.23;;;14.37;;
26478;SDS011;14163;-26.142;27.992;2022-09-09T06:32:38;16.57;;;14.87;;
26478;SDS011;14163;-26.142;27.992;2022-09-09T06:35:10;17.43;;;15.60;;
26478;SDS011;14163;-26.142;27.992;2022-09-09T06:37:39;19.20;;;16.70;;
26478;SDS011;14163;-26.142;27.992;2022-09-09T06:40:14;17.67;;;15.80;;
26478;SDS011;14163;-26.142;27.992;2022-09-09T06:42:43;20.13;;;16.20;;
26478;SDS011;14163;-26.142;27.992;2022-09-09T06:45:12;17.37;;;15.30;;
26478;SDS011;14163;-26.142;27.992;2022-09-09T06:47:42;17.60;;;15.80;;
26478;SDS011;14163;-26.142;27.992;2022-09-09T06:50:13;19.00;;;15.47;;
26478;SDS011;14163;-26.142;27.992;2022-09-09T06:52:42;17.13;;;15.50;;
26478;SDS011;14163;-26.142;27.992;2022-09-09T06:55:15;21.17;;;17.17;;
26478;SDS011;14163;-26.142;27.992;2022-09-09T06:57:45;18.80;;;15.80;;
26478;SDS011;14163;-26.142;27.992;2022-09-09T07:00:14;17.37;;;14.73;;
26478;SDS011;14163;-26.142;27.992;2022-09-09T07:02:43;16.97;;;14.50;;
26478;SDS011;14163;-26.142;27.992;2022-09-09T07:05:15;16.77;;;14.17;;
26478;SDS011;14163;-26.142;27.992;2022-09-09T07:07:45;14.73;;;13.43;;
26478;SDS011;14163;-26.142;27.992;2022-09-09T07:10:14;18.03;;;13.90;;
26478;SDS011;14163;-26.142;27.992;2022-09-09T07:12:44;15.20;;;13.57;;
26478;SDS011;14163;-26.142;27.992;2022-09-09T07:15:17;17.20;;;13.57;;
26478;SDS011;14163;-26.142;27.992;2022-09-09T07:17:47;19.70;;;14.40;;
26478;SDS011;14163;-26.142;27.992;2022-09-09T07:20:17;14.73;;;13.40;;
26478;SDS011;14163;-26.142;27.992;2022-09-09T07:22:47;17.93;;;14.90;;
26478;SDS011;14163;-26.142;27.992;2022-09-09T07:25:16;14.90;;;13.30;;
26478;SDS011;14163;-26.142;27.992;2022-09-09T07:27:46;17.83;;;16.00;;
26478;SDS011;14163;-26.142;27.992;2022-09-09T07:30:16;14.83;;;13.53;;
26478;SDS011;14163;-26.142;27.992;2022-09-09T07:32:45;15.63;;;14.03;;
26478;SDS011;14163;-26.142;27.992;2022-09-09T07:35:14;16.70;;;13.30;;
26478;SDS011;14163;-26.142;27.992;2022-09-09T07:37:46;17.20;;;14.50;;
26478;SDS011;14163;-26.142;27.992;2022-09-09T07:40:15;18.63;;;14.50;;
26478;SDS011;14163;-26.142;27.992;2022-09-09T07:42:47;16.40;;;14.00;;
26478;SDS011;14163;-26.142;27.992;2022-09-09T07:45:16;15.13;;;13.63;;
26478;SDS011;14163;-26.142;27.992;2022-09-09T07:47:45;16.33;;;14.63;;
26478;SDS011;14163;-26.142;27.992;2022-09-09T07:50:17;21.50;;;15.47;;
26478;SDS011;14163;-26.142;27.992;2022-09-09T07:52:46;15.90;;;14.30;;
26478;SDS011;14163;-26.142;27.992;2022-09-09T07:55:15;17.00;;;15.33;;
26478;SDS011;14163;-26.142;27.992;2022-09-09T07:57:45;19.13;;;17.13;;
26478;SDS011;14163;-26.142;27.992;2022-09-09T08:00:15;26.30;;;18.10;;
26478;SDS011;14163;-26.142;27.992;2022-09-09T08:02:45;18.67;;;16.67;;
26478;SDS011;14163;-26.142;27.992;2022-09-09T08:05:14;16.63;;;15.03;;
26478;SDS011;14163;-26.142;27.992;2022-09-09T08:07:45;19.23;;;14.70;;
26478;SDS011;14163;-26.142;27.992;2022-09-09T08:10:14;16.30;;;14.60;;
26478;SDS011;14163;-26.142;27.992;2022-09-09T08:12:44;15.83;;;14.27;;
26478;SDS011;14163;-26.142;27.992;2022-09-09T08:15:13;17.67;;;15.77;;
26478;SDS011;14163;-26.142;27.992;2022-09-09T08:17:42;20.30;;;15.97;;
26478;SDS011;14163;-26.142;27.992;2022-09-09T08:20:12;35.60;;;25.90;;
26478;SDS011;14163;-26.142;27.992;2022-09-09T08:22:42;22.70;;;19.30;;
26478;SDS011;14163;-26.142;27.992;2022-09-09T08:25:12;22.23;;;19.50;;
26478;SDS011;14163;-26.142;27.992;2022-09-09T08:27:41;43.33;;;37.83;;
26478;SDS011;14163;-26.142;27.992;2022-09-09T08:30:11;21.30;;;17.37;;
26478;SDS011;14163;-26.142;27.992;2022-09-09T08:32:41;23.50;;;19.33;;
26478;SDS011;14163;-26.142;27.992;2022-09-09T08:35:10;25.60;;;19.53;;
26478;SDS011;14163;-26.142;27.992;2022-09-09T08:37:39;19.10;;;17.27;;
26478;SDS011;14163;-26.142;27.992;2022-09-09T08:40:11;18.97;;;16.90;;
26478;SDS011;14163;-26.142;27.992;2022-09-09T08:42:50;20.90;;;17.70;;
26478;SDS011;14163;-26.142;27.992;2022-09-09T08:45:26;21.90;;;16.40;;
26478;SDS011;14163;-26.142;27.992;2022-09-09T08:48:14;21.73;;;19.27;;
26478;SDS011;14163;-26.142;27.992;2022-09-09T08:50:56;25.00;;;18.27;;
26478;SDS011;14163;-26.142;27.992;2022-09-09T08:53:29;23.23;;;17.90;;
26478;SDS011;14163;-26.142;27.992;2022-09-09T08:56:08;24.00;;;18.53;;
26478;SDS011;14163;-26.142;27.992;2022-09-09T08:58:42;22.33;;;17.07;;
26478;SDS011;14163;-26.142;27.992;2022-09-09T09:01:22;21.27;;;17.37;;
26478;SDS011;14163;-26.142;27.992;2022-09-09T09:04:03;24.40;;;17.60;;
26478;SDS011;14163;-26.142;27.992;2022-09-09T09:06:45;22.70;;;17.40;;
26478;SDS011;14163;-26.142;27.992;2022-09-09T09:09:26;24.50;;;17.60;;
26478;SDS011;14163;-26.142;27.992;2022-09-09T09:12:07;17.30;;;15.63;;
26478;SDS011;14163;-26.142;27.992;2022-09-09T09:14:42;19.40;;;15.47;;
26478;SDS011;14163;-26.142;27.992;2022-09-09T09:17:14;17.00;;;15.20;;
26478;SDS011;14163;-26.142;27.992;2022-09-09T09:19:45;18.83;;;16.10;;
26478;SDS011;14163;-26.142;27.992;2022-09-09T09:22:17;18.67;;;16.70;;
26478;SDS011;14163;-26.142;27.992;2022-09-09T09:24:53;18.37;;;16.47;;
26478;SDS011;14163;-26.142;27.992;2022-09-09T09:27:30;17.27;;;15.47;;
26478;SDS011;14163;-26.142;27.992;2022-09-09T09:30:01;19.53;;;16.27;;
26478;SDS011;14163;-26.142;27.992;2022-09-09T09:32:40;17.40;;;15.67;;
26478;SDS011;14163;-26.142;27.992;2022-09-09T09:35:17;18.10;;;16.20;;
26478;SDS011;14163;-26.142;27.992;2022-09-09T09:37:46;22.93;;;16.67;;
26478;SDS011;14163;-26.142;27.992;2022-09-09T09:40:18;18.83;;;16.43;;
26478;SDS011;14163;-26.142;27.992;2022-09-09T09:42:49;19.67;;;17.60;;
26478;SDS011;14163;-26.142;27.992;2022-09-09T09:45:26;18.43;;;16.63;;
26478;SDS011;14163;-26.142;27.992;2022-09-09T09:48:01;19.77;;;17.63;;
26478;SDS011;14163;-26.142;27.992;2022-09-09T09:50:31;20.10;;;15.13;;
26478;SDS011;14163;-26.142;27.992;2022-09-09T09:53:02;16.73;;;14.97;;
26478;SDS011;14163;-26.142;27.992;2022-09-09T09:55:33;16.37;;;14.87;;
26478;SDS011;14163;-26.142;27.992;2022-09-09T09:58:04;17.50;;;15.03;;
26478;SDS011;14163;-26.142;27.992;2022-09-09T10:00:34;14.67;;;13.10;;
26478;SDS011;14163;-26.142;27.992;2022-09-09T10:03:12;16.07;;;14.47;;
26478;SDS011;14163;-26.142;27.992;2022-09-09T10:05:53;15.07;;;13.70;;
26478;SDS011;14163;-26.142;27.992;2022-09-09T10:08:23;16.37;;;14.63;;
26478;SDS011;14163;-26.142;27.992;2022-09-09T10:11:00;15.30;;;13.80;;
26478;SDS011;14163;-26.142;27.992;2022-09-09T10:13:44;15.17;;;13.47;;
26478;SDS011;14163;-26.142;27.992;2022-09-09T10:16:23;15.80;;;14.03;;
26478;SDS011;14163;-26.142;27.992;2022-09-09T10:19:00;13.93;;;12.73;;
26478;SDS011;14163;-26.142;27.992;2022-09-09T10:21:36;14.83;;;13.33;;
26478;SDS011;14163;-26.142;27.992;2022-09-09T10:24:23;14.00;;;12.47;;
26478;SDS011;14163;-26.142;27.992;2022-09-09T10:27:05;15.00;;;13.50;;
26478;SDS011;14163;-26.142;27.992;2022-09-09T10:29:43;15.53;;;14.00;;
26478;SDS011;14163;-26.142;27.992;2022-09-09T10:32:32;14.20;;;12.97;;
26478;SDS011;14163;-26.142;27.992;2022-09-09T10:35:09;15.50;;;14.00;;
26478;SDS011;14163;-26.142;27.992;2022-09-09T10:37:46;15.90;;;13.33;;
26478;SDS011;14163;-26.142;27.992;2022-09-09T10:40:37;14.50;;;13.30;;
26478;SDS011;14163;-26.142;27.992;2022-09-09T10:43:16;15.00;;;13.50;;
26478;SDS011;14163;-26.142;27.992;2022-09-09T10:45:57;14.30;;;12.80;;
26478;SDS011;14163;-26.142;27.992;2022-09-09T10:51:27;14.40;;;13.20;;
26478;SDS011;14163;-26.142;27.992;2022-09-09T10:54:05;15.13;;;13.50;;
26478;SDS011;14163;-26.142;27.992;2022-09-09T10:56:44;15.87;;;13.63;;
26478;SDS011;14163;-26.142;27.992;2022-09-09T10:59:22;14.07;;;12.93;;
26478;SDS011;14163;-26.142;27.992;2022-09-09T11:01:57;14.87;;;13.47;;
26478;SDS011;14163;-26.142;27.992;2022-09-09T11:04:33;13.10;;;11.90;;
26478;SDS011;14163;-26.142;27.992;2022-09-09T11:07:08;15.07;;;13.57;;
26478;SDS011;14163;-26.142;27.992;2022-09-09T11:09:41;15.30;;;13.83;;
26478;SDS011;14163;-26.142;27.992;2022-09-09T11:12:16;12.47;;;11.37;;
26478;SDS011;14163;-26.142;27.992;2022-09-09T11:14:49;12.70;;;11.73;;
26478;SDS011;14163;-26.142;27.992;2022-09-09T11:17:23;13.27;;;12.10;;
26478;SDS011;14163;-26.142;27.992;2022-09-09T11:19:54;13.97;;;12.70;;
26478;SDS011;14163;-26.142;27.992;2022-09-09T11:22:25;13.97;;;12.80;;
26478;SDS011;14163;-26.142;27.992;2022-09-09T11:24:58;19.97;;;14.10;;
26478;SDS011;14163;-26.142;27.992;2022-09-09T11:27:35;13.70;;;12.47;;
26478;SDS011;14163;-26.142;27.992;2022-09-09T11:30:16;14.93;;;12.67;;
26478;SDS011;14163;-26.142;27.992;2022-09-09T11:33:00;15.43;;;14.00;;
26478;SDS011;14163;-26.142;27.992;2022-09-09T11:35:55;13.50;;;12.40;;
26478;SDS011;14163;-26.142;27.992;2022-09-09T11:38:38;13.00;;;12.00;;
26478;SDS011;14163;-26.142;27.992;2022-09-09T11:41:13;13.90;;;12.50;;
26478;SDS011;14163;-26.142;27.992;2022-09-09T11:43:43;11.45;;;10.63;;
26478;SDS011;14163;-26.142;27.992;2022-09-09T11:46:16;11.57;;;10.75;;
26478;SDS011;14163;-26.142;27.992;2022-09-09T11:48:57;11.57;;;10.57;;
26478;SDS011;14163;-26.142;27.992;2022-09-09T11:51:27;11.68;;;10.50;;
26478;SDS011;14163;-26.142;27.992;2022-09-09T11:53:58;10.60;;;9.70;;
26478;SDS011;14163;-26.142;27.992;2022-09-09T11:56:29;11.90;;;10.80;;
26478;SDS011;14163;-26.142;27.992;2022-09-09T11:59:00;11.52;;;10.73;;
26478;SDS011;14163;-26.142;27.992;2022-09-09T12:01:36;11.00;;;10.18;;
26478;SDS011;14163;-26.142;27.992;2022-09-09T14:07:13;14.50;;;12.97;;
26478;SDS011;14163;-26.142;27.992;2022-09-09T14:09:45;14.50;;;13.10;;
26478;SDS011;14163;-26.142;27.992;2022-09-09T14:12:15;14.00;;;12.40;;
26478;SDS011;14163;-26.142;27.992;2022-09-09T14:14:45;14.10;;;12.80;;
26478;SDS011;14163;-26.142;27.992;2022-09-09T14:17:15;14.63;;;13.33;;
26478;SDS011;14163;-26.142;27.992;2022-09-09T14:19:44;13.30;;;12.10;;
26478;SDS011;14163;-26.142;27.992;2022-09-09T14:22:15;14.50;;;13.30;;
26478;SDS011;14163;-26.142;27.992;2022-09-09T14:24:44;13.80;;;12.60;;
26478;SDS011;14163;-26.142;27.992;2022-09-09T14:27:14;14.37;;;12.20;;
26478;SDS011;14163;-26.142;27.992;2022-09-09T14:29:44;13.43;;;12.23;;
26478;SDS011;14163;-26.142;27.992;2022-09-09T14:32:13;12.60;;;11.57;;
26478;SDS011;14163;-26.142;27.992;2022-09-09T14:34:42;15.17;;;13.60;;
26478;SDS011;14163;-26.142;27.992;2022-09-09T14:37:12;15.57;;;12.60;;
26478;SDS011;14163;-26.142;27.992;2022-09-09T14:39:42;15.97;;;12.63;;
26478;SDS011;14163;-26.142;27.992;2022-09-09T14:42:12;13.33;;;12.07;;
26478;SDS011;14163;-26.142;27.992;2022-09-09T14:44:42;14.37;;;12.73;;
26478;SDS011;14163;-26.142;27.992;2022-09-09T14:47:11;14.63;;;13.53;;
26478;SDS011;14163;-26.142;27.992;2022-09-09T14:49:40;13.67;;;12.10;;
26478;SDS011;14163;-26.142;27.992;2022-09-09T14:52:09;12.77;;;11.73;;
26478;SDS011;14163;-26.142;27.992;2022-09-09T14:54:38;13.43;;;12.10;;
26478;SDS011;14163;-26.142;27.992;2022-09-09T14:57:09;16.50;;;14.23;;
26478;SDS011;14163;-26.142;27.992;2022-09-09T14:59:38;14.13;;;12.87;;
26478;SDS011;14163;-26.142;27.992;2022-09-09T15:02:08;13.37;;;12.13;;
26478;SDS011;14163;-26.142;27.992;2022-09-09T15:04:39;14.73;;;13.23;;
26478;SDS011;14163;-26.142;27.992;2022-09-09T15:07:09;14.13;;;12.70;;
26478;SDS011;14163;-26.142;27.992;2022-09-09T15:09:42;12.80;;;11.80;;
26478;SDS011;14163;-26.142;27.992;2022-09-09T15:12:15;13.57;;;12.20;;
26478;SDS011;14163;-26.142;27.992;2022-09-09T15:14:47;18.33;;;13.40;;
26478;SDS011;14163;-26.142;27.992;2022-09-09T15:17:17;14.00;;;12.83;;
26478;SDS011;14163;-26.142;27.992;2022-09-09T15:19:53;14.10;;;12.40;;
26478;SDS011;14163;-26.142;27.992;2022-09-09T15:22:27;13.50;;;12.30;;
26478;SDS011;14163;-26.142;27.992;2022-09-09T15:24:59;13.03;;;11.93;;
26478;SDS011;14163;-26.142;27.992;2022-09-09T15:27:30;15.70;;;12.97;;
26478;SDS011;14163;-26.142;27.992;2022-09-09T15:30:00;16.30;;;12.50;;
26478;SDS011;14163;-26.142;27.992;2022-09-09T15:32:29;14.17;;;12.77;;
26478;SDS011;14163;-26.142;27.992;2022-09-09T15:35:00;13.70;;;12.53;;
26478;SDS011;14163;-26.142;27.992;2022-09-09T15:37:29;14.20;;;13.00;;
26478;SDS011;14163;-26.142;27.992;2022-09-09T15:39:59;18.07;;;13.30;;
26478;SDS011;14163;-26.142;27.992;2022-09-09T15:42:28;14.30;;;12.80;;
26478;SDS011;14163;-26.142;27.992;2022-09-09T15:44:59;13.20;;;11.87;;
26478;SDS011;14163;-26.142;27.992;2022-09-09T15:47:28;15.47;;;13.90;;
26478;SDS011;14163;-26.142;27.992;2022-09-09T15:49:57;14.33;;;13.00;;
26478;SDS011;14163;-26.142;27.992;2022-09-09T15:52:26;15.67;;;13.30;;
26478;SDS011;14163;-26.142;27.992;2022-09-09T15:54:56;16.50;;;14.90;;
26478;SDS011;14163;-26.142;27.992;2022-09-09T15:57:26;15.53;;;14.13;;
26478;SDS011;14163;-26.142;27.992;2022-09-09T15:59:57;14.80;;;12.83;;
26478;SDS011;14163;-26.142;27.992;2022-09-09T16:02:26;14.03;;;12.63;;
26478;SDS011;14163;-26.142;27.992;2022-09-09T16:04:55;16.73;;;14.40;;
26478;SDS011;14163;-26.142;27.992;2022-09-09T16:07:26;18.57;;;14.53;;
26478;SDS011;14163;-26.142;27.992;2022-09-09T16:09:56;15.40;;;14.10;;
26478;SDS011;14163;-26.142;27.992;2022-09-09T16:12:25;13.83;;;12.73;;
26478;SDS011;14163;-26.142;27.992;2022-09-09T16:14:54;15.80;;;14.30;;
26478;SDS011;14163;-26.142;27.992;2022-09-09T16:17:25;16.67;;;15.07;;
26478;SDS011;14163;-26.142;27.992;2022-09-09T16:19:54;17.03;;;15.13;;
26478;SDS011;14163;-26.142;27.992;2022-09-09T16:22:23;16.83;;;15.10;;
26478;SDS011;14163;-26.142;27.992;2022-09-09T16:24:52;14.80;;;13.40;;
26478;SDS011;14163;-26.142;27.992;2022-09-09T16:27:22;17.23;;;14.67;;
26478;SDS011;14163;-26.142;27.992;2022-09-09T16:29:51;15.30;;;13.90;;
26478;SDS011;14163;-26.142;27.992;2022-09-09T16:32:22;18.40;;;14.90;;